sensor_id;sensor_type;location;lat;lon;timestamp;pressure;altitude;pressure_sealevel;temperature;humidity
4449;BME280;2237;51.870;6.160;2023-04-25T00:01:41;100897.00;;;9.35;100.00
4449;BME280;2237;51.870;6.160;2023-04-25T00:04:07;100890.06;;;9.37;100.00
4449;BME280;2237;51.870;6.160;2023-04-25T00:06:34;100884.91;;;9.34;100.00
4449;BME280;2237;51.870;6.160;2023-04-25T00:09:03;100893.63;;;9.30;100.00
4449;BME280;2237;51.870;6.160;2023-04-25T00:11:33;100898.00;;;9.26;100.00
4449;BME280;2237;51.870;6.160;2023-04-25T00:14:00;100898.06;;;9.23;100.00
4449;BME280;2237;51.870;6.160;2023-04-25T00:16:29;100897.47;;;9.06;100.00
4449;BME280;2237;51.870;6.160;2023-04-25T00:18:59;100894.81;;;9.11;100.00
4449;BME280;2237;51.870;6.160;2023-04-25T00:21:26;100896.56;;;9.10;100.00
4449;BME280;2237;51.870;6.160;2023-04-25T00:23:52;100898.31;;;9.08;100.00
4449;BME280;2237;51.870;6.160;2023-04-25T00:26:19;100912.38;;;8.93;100.00
4449;BME280;2237;51.870;6.160;2023-04-25T00:28:47;100909.25;;;8.69;100.00
4449;BME280;2237;51.870;6.160;2023-04-25T00:31:14;100919.75;;;8.60;100.00
4449;BME280;2237;51.870;6.160;2023-04-25T00:33:40;100923.44;;;8.43;100.00
4449;BME280;2237;51.870;6.160;2023-04-25T00:36:07;100927.78;;;8.41;100.00
4449;BME280;2237;51.870;6.160;2023-04-25T00:38:33;100923.50;;;8.37;100.00
4449;BME280;2237;51.870;6.160;2023-04-25T00:41:00;100930.41;;;8.38;100.00
4449;BME280;2237;51.870;6.160;2023-04-25T00:43:27;100931.19;;;8.45;100.00
4449;BME280;2237;51.870;6.160;2023-04-25T00:45:53;100931.16;;;8.48;100.00
4449;BME280;2237;51.870;6.160;2023-04-25T00:48:21;100927.75;;;8.44;100.00
4449;BME280;2237;51.870;6.160;2023-04-25T00:50:53;100933.81;;;8.43;100.00
4449;BME280;2237;51.870;6.160;2023-04-25T00:53:24;100939.84;;;8.45;100.00
4449;BME280;2237;51.870;6.160;2023-04-25T00:55:51;100934.72;;;8.39;100.00
4449;BME280;2237;51.870;6.160;2023-04-25T00:58:19;100945.22;;;8.29;100.00
4449;BME280;2237;51.870;6.160;2023-04-25T01:00:47;100939.13;;;8.31;100.00
4449;BME280;2237;51.870;6.160;2023-04-25T01:03:15;100934.81;;;8.32;100.00
4449;BME280;2237;51.870;6.160;2023-04-25T01:05:46;100931.34;;;8.33;100.00
4449;BME280;2237;51.870;6.160;2023-04-25T01:08:14;100936.41;;;8.42;100.00
4449;BME280;2237;51.870;6.160;2023-04-25T01:10:40;100932.09;;;8.42;100.00
4449;BME280;2237;51.870;6.160;2023-04-25T01:13:07;100928.63;;;8.43;100.00
4449;BME280;2237;51.870;6.160;2023-04-25T01:15:34;100936.34;;;8.48;100.00
4449;BME280;2237;51.870;6.160;2023-04-25T01:18:03;100930.50;;;8.31;100.00
4449;BME280;2237;51.870;6.160;2023-04-25T01:20:32;100940.81;;;8.38;100.00
4449;BME280;2237;51.870;6.160;2023-04-25T01:22:58;100938.16;;;8.40;100.00
4449;BME280;2237;51.870;6.160;2023-04-25T01:25:25;100940.63;;;8.50;100.00
4449;BME280;2237;51.870;6.160;2023-04-25T01:27:52;100938.97;;;8.46;100.00
4449;BME280;2237;51.870;6.160;2023-04-25T01:30:19;100945.75;;;8.57;100.00
4449;BME280;2237;51.870;6.160;2023-04-25T01:32:45;100943.25;;;8.49;100.00
4449;BME280;2237;51.870;6.160;2023-04-25T01:35:13;100950.25;;;8.42;100.00
4449;BME280;2237;51.870;6.160;2023-04-25T01:37:41;100950.34;;;8.33;100.00
4449;BME280;2237;51.870;6.160;2023-04-25T01:40:09;100963.38;;;8.27;100.00
4449;BME280;2237;51.870;6.160;2023-04-25T01:42:38;100959.94;;;8.25;100.00
4449;BME280;2237;51.870;6.160;2023-04-25T01:45:07;100959.25;;;8.08;100.00
4449;BME280;2237;51.870;6.160;2023-04-25T01:47:34;100964.31;;;8.20;100.00
4449;BME280;2237;51.870;6.160;2023-04-25T01:50:04;100960.78;;;8.27;100.00
4449;BME280;2237;51.870;6.160;2023-04-25T01:52:30;100964.22;;;8.31;100.00
4449;BME280;2237;51.870;6.160;2023-04-25T01:54:57;100965.97;;;8.26;100.00
4449;BME280;2237;51.870;6.160;2023-04-25T01:57:25;100968.56;;;8.26;100.00
4449;BME280;2237;51.870;6.160;2023-04-25T01:59:58;100974.81;;;8.08;100.00
4449;BME280;2237;51.870;6.160;2023-04-25T02:02:25;100969.69;;;8.02;100.00
4449;BME280;2237;51.870;6.160;2023-04-25T02:04:52;100976.53;;;8.09;100.00
4449;BME280;2237;51.870;6.160;2023-04-25T02:07:19;100975.56;;;8.19;100.00
4449;BME280;2237;51.870;6.160;2023-04-25T02:09:45;100973.88;;;8.14;100.00
4449;BME280;2237;51.870;6.160;2023-04-25T02:12:11;100977.34;;;8.13;100.00
4449;BME280;2237;51.870;6.160;2023-04-25T02:14:38;100968.72;;;8.12;100.00
4449;BME280;2237;51.870;6.160;2023-04-25T02:17:04;100980.00;;;8.10;100.00
4449;BME280;2237;51.870;6.160;2023-04-25T02:19:31;100974.78;;;8.11;100.00
4449;BME280;2237;51.870;6.160;2023-04-25T02:21:58;100966.13;;;8.11;100.00
4449;BME280;2237;51.870;6.160;2023-04-25T02:24:24;100964.50;;;8.04;100.00
4449;BME280;2237;51.870;6.160;2023-04-25T02:26:51;100973.09;;;8.06;100.00
4449;BME280;2237;51.870;6.160;2023-04-25T02:29:17;100981.63;;;8.17;100.00
4449;BME280;2237;51.870;6.160;2023-04-25T02:31:43;100985.22;;;8.05;100.00
4449;BME280;2237;51.870;6.160;2023-04-25T02:34:10;100981.00;;;7.95;100.00
4449;BME280;2237;51.870;6.160;2023-04-25T02:36:36;100981.81;;;7.98;100.00
4449;BME280;2237;51.870;6.160;2023-04-25T02:39:02;100976.59;;;8.02;100.00
4449;BME280;2237;51.870;6.160;2023-04-25T02:41:29;100982.69;;;8.01;100.00
4449;BME280;2237;51.870;6.160;2023-04-25T02:43:55;100980.16;;;7.90;100.00
4449;BME280;2237;51.870;6.160;2023-04-25T02:46:22;100981.03;;;7.92;100.00
4449;BME280;2237;51.870;6.160;2023-04-25T02:49:04;100977.47;;;7.99;100.00
4449;BME280;2237;51.870;6.160;2023-04-25T02:51:31;100981.78;;;8.02;100.00
4449;BME280;2237;51.870;6.160;2023-04-25T02:53:58;100981.78;;;8.02;100.00
4449;BME280;2237;51.870;6.160;2023-04-25T02:56:25;100990.47;;;7.97;100.00
4449;BME280;2237;51.870;6.160;2023-04-25T02:58:52;100985.31;;;7.94;100.00
4449;BME280;2237;51.870;6.160;2023-04-25T03:01:19;100988.78;;;7.93;100.00
4449;BME280;2237;51.870;6.160;2023-04-25T03:03:45;100987.13;;;7.86;100.00
4449;BME280;2237;51.870;6.160;2023-04-25T03:06:12;100989.78;;;7.77;100.00
4449;BME280;2237;51.870;6.160;2023-04-25T03:08:38;100989.72;;;7.85;100.00
4449;BME280;2237;51.870;6.160;2023-04-25T03:11:04;100993.19;;;7.81;100.00
4449;BME280;2237;51.870;6.160;2023-04-25T03:13:31;100989.75;;;7.82;100.00
4449;BME280;2237;51.870;6.160;2023-04-25T03:15:57;100991.47;;;7.81;100.00
4449;BME280;2237;51.870;6.160;2023-04-25T03:18:24;100985.34;;;7.90;100.00
4449;BME280;2237;51.870;6.160;2023-04-25T03:20:50;101000.06;;;7.88;100.00
4449;BME280;2237;51.870;6.160;2023-04-25T03:23:16;101000.94;;;7.87;100.00
4449;BME280;2237;51.870;6.160;2023-04-25T03:25:43;100999.19;;;7.89;100.00
4449;BME280;2237;51.870;6.160;2023-04-25T03:28:09;100991.41;;;7.92;100.00
4449;BME280;2237;51.870;6.160;2023-04-25T03:30:35;100991.44;;;7.86;100.00
4449;BME280;2237;51.870;6.160;2023-04-25T03:33:02;100998.34;;;7.84;100.00
4449;BME280;2237;51.870;6.160;2023-04-25T03:35:28;101002.75;;;7.77;100.00
4449;BME280;2237;51.870;6.160;2023-04-25T03:37:55;101003.84;;;7.48;100.00
4449;BME280;2237;51.870;6.160;2023-04-25T03:40:21;100999.53;;;7.44;100.00
4449;BME280;2237;51.870;6.160;2023-04-25T03:42:47;101007.25;;;7.53;100.00
4449;BME280;2237;51.870;6.160;2023-04-25T03:45:14;100999.50;;;7.51;100.00
4449;BME280;2237;51.870;6.160;2023-04-25T03:47:40;100999.53;;;7.48;100.00
4449;BME280;2237;51.870;6.160;2023-04-25T03:50:07;100999.47;;;7.54;100.00
4449;BME280;2237;51.870;6.160;2023-04-25T03:52:33;101009.09;;;7.35;100.00
4449;BME280;2237;51.870;6.160;2023-04-25T03:55:00;101009.06;;;7.42;100.00
4449;BME280;2237;51.870;6.160;2023-04-25T03:57:26;101014.28;;;7.32;100.00
4449;BME280;2237;51.870;6.160;2023-04-25T03:59:52;101013.47;;;7.23;100.00
4449;BME280;2237;51.870;6.160;2023-04-25T04:02:19;101014.38;;;7.22;100.00
4449;BME280;2237;51.870;6.160;2023-04-25T04:04:45;101014.41;;;7.16;100.00
4449;BME280;2237;51.870;6.160;2023-04-25T04:07:12;101019.47;;;7.34;100.00
4449;BME280;2237;51.870;6.160;2023-04-25T04:09:38;101010.81;;;7.39;100.00
4449;BME280;2237;51.870;6.160;2023-04-25T04:12:05;101023.72;;;7.46;100.00
4449;BME280;2237;51.870;6.160;2023-04-25T04:14:31;101019.38;;;7.46;100.00
4449;BME280;2237;51.870;6.160;2023-04-25T04:16:58;101017.63;;;7.53;100.00
4449;BME280;2237;51.870;6.160;2023-04-25T04:19:25;101017.66;;;7.47;100.00
4449;BME280;2237;51.870;6.160;2023-04-25T04:21:51;101021.97;;;7.43;100.00
4449;BME280;2237;51.870;6.160;2023-04-25T04:24:18;101027.22;;;7.38;100.00
4449;BME280;2237;51.870;6.160;2023-04-25T04:26:44;101018.59;;;7.39;100.00
4449;BME280;2237;51.870;6.160;2023-04-25T04:29:11;101021.13;;;7.46;100.00
4449;BME280;2237;51.870;6.160;2023-04-25T04:31:37;101029.81;;;7.35;100.00
4449;BME280;2237;51.870;6.160;2023-04-25T04:34:04;101035.84;;;7.39;100.00
4449;BME280;2237;51.870;6.160;2023-04-25T04:36:30;101029.88;;;7.26;100.00
4449;BME280;2237;51.870;6.160;2023-04-25T04:38:57;101039.34;;;7.32;100.00
4449;BME280;2237;51.870;6.160;2023-04-25T04:41:23;101041.13;;;7.25;100.00
4449;BME280;2237;51.870;6.160;2023-04-25T04:43:49;101047.94;;;7.35;100.00
4449;BME280;2237;51.870;6.160;2023-04-25T04:46:16;101055.72;;;7.38;100.00
4449;BME280;2237;51.870;6.160;2023-04-25T04:48:46;101042.78;;;7.35;100.00
4449;BME280;2237;51.870;6.160;2023-04-25T04:51:13;101049.72;;;7.30;100.00
4449;BME280;2237;51.870;6.160;2023-04-25T04:53:39;101057.50;;;7.27;100.00
4449;BME280;2237;51.870;6.160;2023-04-25T04:56:06;101065.25;;;7.33;100.00
4449;BME280;2237;51.870;6.160;2023-04-25T04:58:32;101065.16;;;7.47;100.00
4449;BME280;2237;51.870;6.160;2023-04-25T05:00:59;101071.19;;;7.51;100.00
4449;BME280;2237;51.870;6.160;2023-04-25T05:03:25;101079.78;;;7.59;100.00
4449;BME280;2237;51.870;6.160;2023-04-25T05:05:53;101074.53;;;7.68;100.00
4449;BME280;2237;51.870;6.160;2023-04-25T05:08:19;101070.22;;;7.64;100.00
4449;BME280;2237;51.870;6.160;2023-04-25T05:10:46;101085.75;;;7.67;100.00
4449;BME280;2237;51.870;6.160;2023-04-25T05:13:12;101095.22;;;7.72;100.00
4449;BME280;2237;51.870;6.160;2023-04-25T05:15:38;101107.31;;;7.76;100.00
4449;BME280;2237;51.870;6.160;2023-04-25T05:18:05;101118.50;;;7.83;100.00
4449;BME280;2237;51.870;6.160;2023-04-25T05:20:31;101115.06;;;7.82;100.00
4449;BME280;2237;51.870;6.160;2023-04-25T05:22:58;101118.59;;;7.71;100.00
4449;BME280;2237;51.870;6.160;2023-04-25T05:25:24;101122.03;;;7.74;100.00
4449;BME280;2237;51.870;6.160;2023-04-25T05:27:50;101121.97;;;7.82;100.00
4449;BME280;2237;51.870;6.160;2023-04-25T05:30:18;101121.97;;;7.86;100.00
4449;BME280;2237;51.870;6.160;2023-04-25T05:32:44;101114.06;;;8.00;100.00
4449;BME280;2237;51.870;6.160;2023-04-25T05:35:12;101118.38;;;8.00;100.00
4449;BME280;2237;51.870;6.160;2023-04-25T05:37:39;101119.22;;;8.05;100.00
4449;BME280;2237;51.870;6.160;2023-04-25T05:40:06;101114.00;;;8.08;100.00
4449;BME280;2237;51.870;6.160;2023-04-25T05:42:33;101120.88;;;8.13;100.00
4449;BME280;2237;51.870;6.160;2023-04-25T05:44:59;101120.81;;;8.22;100.00
4449;BME280;2237;51.870;6.160;2023-04-25T05:47:26;101123.38;;;8.31;100.00
4449;BME280;2237;51.870;6.160;2023-04-25T05:49:52;101125.00;;;8.43;100.00
4449;BME280;2237;51.870;6.160;2023-04-25T05:52:18;101133.56;;;8.52;100.00
4449;BME280;2237;51.870;6.160;2023-04-25T05:54:45;101134.31;;;8.64;100.00
4449;BME280;2237;51.870;6.160;2023-04-25T05:57:22;101141.94;;;8.82;100.00
4449;BME280;2237;51.870;6.160;2023-04-25T05:59:49;101139.28;;;8.86;100.00
4449;BME280;2237;51.870;6.160;2023-04-25T06:02:16;101140.13;;;8.90;100.00
4449;BME280;2237;51.870;6.160;2023-04-25T06:04:42;101145.28;;;8.93;100.00
4449;BME280;2237;51.870;6.160;2023-04-25T06:07:09;101151.44;;;8.84;100.00
4449;BME280;2237;51.870;6.160;2023-04-25T06:09:35;101153.19;;;8.81;100.00
4449;BME280;2237;51.870;6.160;2023-04-25T06:12:02;101154.88;;;8.86;100.00
4449;BME280;2237;51.870;6.160;2023-04-25T06:14:29;101165.25;;;8.88;100.00
4449;BME280;2237;51.870;6.160;2023-04-25T06:16:56;101169.66;;;8.77;100.00
4449;BME280;2237;51.870;6.160;2023-04-25T06:19:22;101174.81;;;8.84;100.00
4449;BME280;2237;51.870;6.160;2023-04-25T06:21:49;101171.34;;;8.82;100.00
4449;BME280;2237;51.870;6.160;2023-04-25T06:24:15;101162.53;;;8.98;100.00
4449;BME280;2237;51.870;6.160;2023-04-25T06:26:41;101165.03;;;9.06;100.00
4449;BME280;2237;51.870;6.160;2023-04-25T06:29:08;101164.91;;;9.20;100.00
4449;BME280;2237;51.870;6.160;2023-04-25T06:31:35;101164.06;;;9.16;100.00
4449;BME280;2237;51.870;6.160;2023-04-25T06:34:01;101171.16;;;9.02;100.00
4449;BME280;2237;51.870;6.160;2023-04-25T06:36:28;101169.41;;;9.04;100.00
4449;BME280;2237;51.870;6.160;2023-04-25T06:38:54;101161.34;;;9.28;100.00
4449;BME280;2237;51.870;6.160;2023-04-25T06:41:21;101161.41;;;9.21;100.00
4449;BME280;2237;51.870;6.160;2023-04-25T06:43:47;101162.19;;;9.30;100.00
4449;BME280;2237;51.870;6.160;2023-04-25T06:46:13;101168.97;;;9.42;100.00
4449;BME280;2237;51.870;6.160;2023-04-25T06:48:40;101176.56;;;9.58;100.00
4449;BME280;2237;51.870;6.160;2023-04-25T06:51:06;101174.81;;;9.60;100.00
4449;BME280;2237;51.870;6.160;2023-04-25T06:53:32;101171.09;;;9.78;100.00
4449;BME280;2237;51.870;6.160;2023-04-25T06:55:59;101177.19;;;9.76;100.00
4449;BME280;2237;51.870;6.160;2023-04-25T06:58:25;101189.41;;;9.71;100.00
4449;BME280;2237;51.870;6.160;2023-04-25T07:00:52;101192.19;;;9.55;100.00
4449;BME280;2237;51.870;6.160;2023-04-25T07:03:19;101191.44;;;9.47;100.00
4449;BME280;2237;51.870;6.160;2023-04-25T07:05:46;101193.91;;;9.56;100.00
4449;BME280;2237;51.870;6.160;2023-04-25T07:08:12;101200.88;;;9.54;100.00
4449;BME280;2237;51.870;6.160;2023-04-25T07:10:38;101202.06;;;9.98;100.00
4449;BME280;2237;51.870;6.160;2023-04-25T07:13:05;101201.03;;;10.09;100.00
4449;BME280;2237;51.870;6.160;2023-04-25T07:15:31;101209.66;;;10.13;100.00
4449;BME280;2237;51.870;6.160;2023-04-25T07:17:57;101205.25;;;10.18;100.00
4449;BME280;2237;51.870;6.160;2023-04-25T07:20:24;101210.53;;;10.12;100.00
4449;BME280;2237;51.870;6.160;2023-04-25T07:22:50;101217.50;;;10.08;100.00
4449;BME280;2237;51.870;6.160;2023-04-25T07:25:17;101216.38;;;10.28;100.00
4449;BME280;2237;51.870;6.160;2023-04-25T07:27:43;101217.00;;;10.43;100.00
4449;BME280;2237;51.870;6.160;2023-04-25T07:30:11;101217.50;;;10.66;100.00
4449;BME280;2237;51.870;6.160;2023-04-25T07:32:38;101220.59;;;10.90;100.00
4449;BME280;2237;51.870;6.160;2023-04-25T07:35:05;101215.19;;;11.00;100.00
4449;BME280;2237;51.870;6.160;2023-04-25T07:37:34;101224.63;;;11.07;100.00
4449;BME280;2237;51.870;6.160;2023-04-25T07:40:01;101221.16;;;11.07;100.00
4449;BME280;2237;51.870;6.160;2023-04-25T07:42:30;101219.50;;;11.03;100.00
4449;BME280;2237;51.870;6.160;2023-04-25T07:44:56;101222.16;;;10.98;100.00
4449;BME280;2237;51.870;6.160;2023-04-25T07:47:23;101224.13;;;10.86;100.00
4449;BME280;2237;51.870;6.160;2023-04-25T07:49:49;101230.25;;;10.85;100.00
4449;BME280;2237;51.870;6.160;2023-04-25T07:52:15;101234.44;;;10.93;100.00
4449;BME280;2237;51.870;6.160;2023-04-25T07:54:42;101236.22;;;10.91;100.00
4449;BME280;2237;51.870;6.160;2023-04-25T07:57:08;101236.22;;;10.91;100.00
4449;BME280;2237;51.870;6.160;2023-04-25T07:59:35;101241.78;;;11.19;100.00
4449;BME280;2237;51.870;6.160;2023-04-25T08:02:01;101239.53;;;10.99;100.00
4449;BME280;2237;51.870;6.160;2023-04-25T08:04:28;101239.44;;;11.04;100.00
4449;BME280;2237;51.870;6.160;2023-04-25T08:06:55;101247.06;;;11.16;100.00
4449;BME280;2237;51.870;6.160;2023-04-25T08:09:21;101244.72;;;11.48;99.17
4449;BME280;2237;51.870;6.160;2023-04-25T08:11:48;101243.56;;;11.63;94.87
4449;BME280;2237;51.870;6.160;2023-04-25T08:14:15;101254.56;;;11.78;95.81
4449;BME280;2237;51.870;6.160;2023-04-25T08:16:41;101251.69;;;11.90;89.23
4449;BME280;2237;51.870;6.160;2023-04-25T08:19:09;101261.81;;;12.06;89.76
4449;BME280;2237;51.870;6.160;2023-04-25T08:21:37;101264.22;;;11.73;92.11
4449;BME280;2237;51.870;6.160;2023-04-25T08:24:03;101256.06;;;10.98;100.00
4449;BME280;2237;51.870;6.160;2023-04-25T08:26:30;101272.44;;;10.53;100.00
4449;BME280;2237;51.870;6.160;2023-04-25T08:28:56;101269.38;;;10.22;100.00
4449;BME280;2237;51.870;6.160;2023-04-25T08:31:22;101278.94;;;10.23;100.00
4449;BME280;2237;51.870;6.160;2023-04-25T08:33:49;101272.44;;;10.51;100.00
4449;BME280;2237;51.870;6.160;2023-04-25T08:36:17;101274.25;;;10.46;100.00
4449;BME280;2237;51.870;6.160;2023-04-25T08:39:04;101279.19;;;10.63;100.00
4449;BME280;2237;51.870;6.160;2023-04-25T08:41:30;101273.81;;;11.25;99.15
4449;BME280;2237;51.870;6.160;2023-04-25T08:43:58;101281.13;;;11.53;90.89
4449;BME280;2237;51.870;6.160;2023-04-25T08:46:26;101282.66;;;11.17;89.31
4449;BME280;2237;51.870;6.160;2023-04-25T08:49:00;101288.72;;;11.17;94.51
4449;BME280;2237;51.870;6.160;2023-04-25T08:51:26;101291.06;;;11.34;91.09
4449;BME280;2237;51.870;6.160;2023-04-25T08:53:56;101297.84;;;11.43;87.75
4449;BME280;2237;51.870;6.160;2023-04-25T08:56:25;101290.63;;;11.57;82.83
4449;BME280;2237;51.870;6.160;2023-04-25T08:58:54;101302.56;;;11.68;76.57
4449;BME280;2237;51.870;6.160;2023-04-25T09:01:21;101304.00;;;11.84;70.48
4449;BME280;2237;51.870;6.160;2023-04-25T09:03:48;101310.19;;;12.22;66.85
4449;BME280;2237;51.870;6.160;2023-04-25T09:06:16;101309.22;;;12.66;64.52
4449;BME280;2237;51.870;6.160;2023-04-25T09:08:43;101317.31;;;12.55;59.29
4449;BME280;2237;51.870;6.160;2023-04-25T09:11:10;101307.66;;;12.57;56.67
4449;BME280;2237;51.870;6.160;2023-04-25T09:13:37;101318.56;;;12.37;54.74
4449;BME280;2237;51.870;6.160;2023-04-25T09:16:03;101329.94;;;12.35;63.64
4449;BME280;2237;51.870;6.160;2023-04-25T09:18:32;101328.09;;;12.40;68.80
4449;BME280;2237;51.870;6.160;2023-04-25T09:21:10;101338.41;;;12.46;74.31
4449;BME280;2237;51.870;6.160;2023-04-25T09:23:47;101338.78;;;12.28;74.93
4449;BME280;2237;51.870;6.160;2023-04-25T09:26:15;101346.34;;;11.99;74.63
4449;BME280;2237;51.870;6.160;2023-04-25T09:28:43;101347.22;;;11.99;78.68
4449;BME280;2237;51.870;6.160;2023-04-25T09:31:10;101355.38;;;12.25;81.60
4449;BME280;2237;51.870;6.160;2023-04-25T09:33:38;101359.16;;;12.52;79.29
4449;BME280;2237;51.870;6.160;2023-04-25T09:36:06;101356.25;;;12.66;81.21
4449;BME280;2237;51.870;6.160;2023-04-25T09:38:44;101357.50;;;12.86;79.59
4449;BME280;2237;51.870;6.160;2023-04-25T09:41:11;101365.44;;;12.83;72.92
4449;BME280;2237;51.870;6.160;2023-04-25T09:43:39;101363.59;;;12.88;71.45
4449;BME280;2237;51.870;6.160;2023-04-25T09:46:10;101360.84;;;12.93;67.43
4449;BME280;2237;51.870;6.160;2023-04-25T09:48:37;101368.22;;;13.14;68.07
4449;BME280;2237;51.870;6.160;2023-04-25T09:51:13;101368.47;;;13.39;67.06
4449;BME280;2237;51.870;6.160;2023-04-25T09:53:41;101361.88;;;13.58;64.02
4449;BME280;2237;51.870;6.160;2023-04-25T09:56:11;101364.59;;;13.55;61.33
4449;BME280;2237;51.870;6.160;2023-04-25T09:58:39;101365.84;;;13.39;61.03
4449;BME280;2237;51.870;6.160;2023-04-25T10:01:07;101365.22;;;13.29;59.62
4449;BME280;2237;51.870;6.160;2023-04-25T10:03:35;101373.94;;;13.30;60.25
4449;BME280;2237;51.870;6.160;2023-04-25T10:06:06;101370.13;;;13.08;60.60
4449;BME280;2237;51.870;6.160;2023-04-25T10:08:37;101381.97;;;13.22;57.71
4449;BME280;2237;51.870;6.160;2023-04-25T10:11:06;101392.63;;;12.35;49.25
4449;BME280;2237;51.870;6.160;2023-04-25T10:13:34;101389.72;;;12.07;52.54
4449;BME280;2237;51.870;6.160;2023-04-25T10:16:03;101385.22;;;11.69;54.05
4449;BME280;2237;51.870;6.160;2023-04-25T10:18:31;101386.06;;;11.70;54.44
4449;BME280;2237;51.870;6.160;2023-04-25T10:21:00;101387.91;;;11.62;55.18
4449;BME280;2237;51.870;6.160;2023-04-25T10:23:29;101390.06;;;11.39;53.55
4449;BME280;2237;51.870;6.160;2023-04-25T10:25:56;101393.63;;;11.33;53.80
4449;BME280;2237;51.870;6.160;2023-04-25T10:28:23;101396.59;;;11.09;55.07
4449;BME280;2237;51.870;6.160;2023-04-25T10:31:04;101383.56;;;11.09;58.49
4449;BME280;2237;51.870;6.160;2023-04-25T10:33:35;101390.56;;;11.08;60.07
4449;BME280;2237;51.870;6.160;2023-04-25T10:36:11;101391.22;;;11.21;59.19
4449;BME280;2237;51.870;6.160;2023-04-25T10:38:39;101383.50;;;11.65;58.15
4449;BME280;2237;51.870;6.160;2023-04-25T10:41:07;101375.16;;;11.94;52.88
4449;BME280;2237;51.870;6.160;2023-04-25T10:43:41;101378.16;;;12.60;55.35
4449;BME280;2237;51.870;6.160;2023-04-25T10:46:23;101364.59;;;13.20;53.13
4449;BME280;2237;51.870;6.160;2023-04-25T10:48:51;101370.16;;;13.75;48.49
4449;BME280;2237;51.870;6.160;2023-04-25T10:51:26;101367.97;;;13.91;48.07
4449;BME280;2237;51.870;6.160;2023-04-25T10:54:02;101379.19;;;13.64;49.36
4449;BME280;2237;51.870;6.160;2023-04-25T10:56:35;101373.66;;;13.74;47.38
4449;BME280;2237;51.870;6.160;2023-04-25T11:04:03;101378.06;;;13.40;48.16
4449;BME280;2237;51.870;6.160;2023-04-25T11:07:13;101389.31;;;13.76;49.42
4449;BME280;2237;51.870;6.160;2023-04-25T11:09:32;101390.03;;;13.15;49.61
4449;BME280;2237;51.870;6.160;2023-04-25T11:11:59;101409.81;;;13.58;53.94
4449;BME280;2237;51.870;6.160;2023-04-25T11:14:26;101423.25;;;13.45;54.41
4449;BME280;2237;51.870;6.160;2023-04-25T11:16:54;101435.44;;;13.11;58.35
4449;BME280;2237;51.870;6.160;2023-04-25T11:19:25;101423.59;;;12.93;60.55
4449;BME280;2237;51.870;6.160;2023-04-25T11:21:59;101430.72;;;12.86;60.59
4449;BME280;2237;51.870;6.160;2023-04-25T11:24:31;101424.63;;;13.26;60.75
4449;BME280;2237;51.870;6.160;2023-04-25T11:26:58;101415.63;;;13.71;58.27
4449;BME280;2237;51.870;6.160;2023-04-25T11:29:29;101441.38;;;13.52;52.79
4449;BME280;2237;51.870;6.160;2023-04-25T11:31:56;101431.63;;;13.59;52.19
4449;BME280;2237;51.870;6.160;2023-04-25T11:34:27;101423.13;;;13.51;50.67
4449;BME280;2237;51.870;6.160;2023-04-25T11:36:56;101428.28;;;13.54;47.74
4449;BME280;2237;51.870;6.160;2023-04-25T11:39:27;101430.00;;;13.55;46.64
4449;BME280;2237;51.870;6.160;2023-04-25T11:41:54;101431.09;;;13.46;47.21
4449;BME280;2237;51.870;6.160;2023-04-25T11:44:21;101427.19;;;13.63;48.23
4449;BME280;2237;51.870;6.160;2023-04-25T11:46:48;101425.56;;;13.91;48.29
4449;BME280;2237;51.870;6.160;2023-04-25T11:49:15;101422.94;;;13.91;45.70
4449;BME280;2237;51.870;6.160;2023-04-25T11:51:46;101422.44;;;13.78;46.83
4449;BME280;2237;51.870;6.160;2023-04-25T11:54:13;101421.59;;;13.76;46.24
4449;BME280;2237;51.870;6.160;2023-04-25T11:56:43;101423.53;;;13.70;47.43
4449;BME280;2237;51.870;6.160;2023-04-25T11:59:10;101425.94;;;13.77;46.28
4449;BME280;2237;51.870;6.160;2023-04-25T12:01:39;101416.53;;;14.02;46.04
4449;BME280;2237;51.870;6.160;2023-04-25T12:04:14;101427.56;;;14.46;45.07
4449;BME280;2237;51.870;6.160;2023-04-25T12:06:43;101427.00;;;14.35;44.68
4449;BME280;2237;51.870;6.160;2023-04-25T12:09:11;101427.66;;;14.43;43.92
4449;BME280;2237;51.870;6.160;2023-04-25T12:11:53;101431.75;;;14.51;44.36
4449;BME280;2237;51.870;6.160;2023-04-25T12:14:22;101422.84;;;14.28;42.87
4449;BME280;2237;51.870;6.160;2023-04-25T12:16:50;101420.72;;;14.99;41.79
4449;BME280;2237;51.870;6.160;2023-04-25T12:19:19;101415.94;;;15.39;42.42
4449;BME280;2237;51.870;6.160;2023-04-25T12:21:47;101426.31;;;15.95;41.43
4449;BME280;2237;51.870;6.160;2023-04-25T12:24:18;101437.53;;;16.24;37.63
4449;BME280;2237;51.870;6.160;2023-04-25T12:27:05;101419.75;;;16.08;37.84
4449;BME280;2237;51.870;6.160;2023-04-25T12:29:33;101438.81;;;15.88;37.89
4449;BME280;2237;51.870;6.160;2023-04-25T12:32:15;101428.19;;;15.39;38.14
4449;BME280;2237;51.870;6.160;2023-04-25T12:34:42;101426.88;;;14.98;38.75
4449;BME280;2237;51.870;6.160;2023-04-25T12:37:08;101427.28;;;14.55;40.54
4449;BME280;2237;51.870;6.160;2023-04-25T12:39:38;101437.94;;;14.80;42.79
4449;BME280;2237;51.870;6.160;2023-04-25T12:42:05;101426.66;;;14.47;41.28
4449;BME280;2237;51.870;6.160;2023-04-25T12:44:35;101432.69;;;14.80;40.79
4449;BME280;2237;51.870;6.160;2023-04-25T12:47:01;101448.16;;;15.16;40.25
4449;BME280;2237;51.870;6.160;2023-04-25T12:49:29;101442.78;;;14.33;43.94
4449;BME280;2237;51.870;6.160;2023-04-25T12:51:55;101450.13;;;14.19;47.05
4449;BME280;2237;51.870;6.160;2023-04-25T12:54:22;101469.22;;;13.90;45.84
4449;BME280;2237;51.870;6.160;2023-04-25T12:56:48;101472.53;;;13.63;47.47
4449;BME280;2237;51.870;6.160;2023-04-25T12:59:16;101469.63;;;13.75;47.81
4449;BME280;2237;51.870;6.160;2023-04-25T13:01:43;101470.97;;;13.56;48.55
4449;BME280;2237;51.870;6.160;2023-04-25T13:04:10;101476.25;;;13.54;50.24
4449;BME280;2237;51.870;6.160;2023-04-25T13:06:37;101479.88;;;13.49;49.33
4449;BME280;2237;51.870;6.160;2023-04-25T13:09:03;101474.03;;;13.38;48.76
4449;BME280;2237;51.870;6.160;2023-04-25T13:11:30;101488.88;;;13.37;48.60
4449;BME280;2237;51.870;6.160;2023-04-25T13:13:57;101485.09;;;13.49;48.21
4449;BME280;2237;51.870;6.160;2023-04-25T13:16:24;101486.19;;;13.39;46.91
4449;BME280;2237;51.870;6.160;2023-04-25T13:18:50;101487.09;;;13.75;47.24